sensor_id;sensor_type;location;lat;lon;timestamp;pressure;altitude;pressure_sealevel;temperature;humidity
80938;BME280;70395;51.382;7.074;2024-03-17T00:02:14;101205.16;;;6.02;58.50
80938;BME280;70395;51.382;7.074;2024-03-17T00:04:39;101190.88;;;6.03;58.50
80938;BME280;70395;51.382;7.074;2024-03-17T00:07:05;101189.06;;;6.03;58.45
80938;BME280;70395;51.382;7.074;2024-03-17T00:09:31;101184.78;;;6.01;58.62
80938;BME280;70395;51.382;7.074;2024-03-17T00:11:56;101182.31;;;5.97;58.68
80938;BME280;70395;51.382;7.074;2024-03-17T00:14:22;101183.34;;;5.95;58.45
80938;BME280;70395;51.382;7.074;2024-03-17T00:16:48;101178.97;;;5.94;59.17
80938;BME280;70395;51.382;7.074;2024-03-17T00:19:15;101177.47;;;5.90;59.09
80938;BME280;70395;51.382;7.074;2024-03-17T00:21:43;101168.78;;;5.86;59.19
80938;BME280;70395;51.382;7.074;2024-03-17T00:24:09;101176.13;;;5.82;59.16
80938;BME280;70395;51.382;7.074;2024-03-17T00:26:35;101174.59;;;5.78;59.48
80938;BME280;70395;51.382;7.074;2024-03-17T00:29:01;101164.97;;;5.75;59.74
80938;BME280;70395;51.382;7.074;2024-03-17T00:31:28;101169.72;;;5.70;59.85
80938;BME280;70395;51.382;7.074;2024-03-17T00:33:54;101163.84;;;5.65;60.14
80938;BME280;70395;51.382;7.074;2024-03-17T00:36:20;101164.09;;;5.60;60.23
80938;BME280;70395;51.382;7.074;2024-03-17T00:38:46;101166.09;;;5.57;60.35
80938;BME280;70395;51.382;7.074;2024-03-17T00:41:12;101163.59;;;5.54;60.32
80938;BME280;70395;51.382;7.074;2024-03-17T00:43:37;101158.38;;;5.52;60.36
80938;BME280;70395;51.382;7.074;2024-03-17T00:46:03;101158.50;;;5.50;60.54
80938;BME280;70395;51.382;7.074;2024-03-17T00:48:29;101158.66;;;5.47;60.57
80938;BME280;70395;51.382;7.074;2024-03-17T00:50:56;101155.25;;;5.45;60.79
80938;BME280;70395;51.382;7.074;2024-03-17T00:53:22;101153.63;;;5.43;60.72
80938;BME280;70395;51.382;7.074;2024-03-17T00:55:52;101148.38;;;5.41;60.74
80938;BME280;70395;51.382;7.074;2024-03-17T00:58:22;101142.28;;;5.39;60.62
80938;BME280;70395;51.382;7.074;2024-03-17T01:00:48;101137.94;;;5.38;60.63
80938;BME280;70395;51.382;7.074;2024-03-17T01:03:18;101138.75;;;5.38;60.64
80938;BME280;70395;51.382;7.074;2024-03-17T01:05:45;101143.25;;;5.38;60.67
80938;BME280;70395;51.382;7.074;2024-03-17T01:08:17;101137.19;;;5.36;60.71
80938;BME280;70395;51.382;7.074;2024-03-17T01:10:44;101135.44;;;5.35;60.73
80938;BME280;70395;51.382;7.074;2024-03-17T01:13:10;101132.97;;;5.32;60.92
80938;BME280;70395;51.382;7.074;2024-03-17T01:15:37;101127.81;;;5.28;60.84
80938;BME280;70395;51.382;7.074;2024-03-17T01:18:04;101127.91;;;5.27;60.93
80938;BME280;70395;51.382;7.074;2024-03-17T01:20:32;101124.50;;;5.25;60.97
80938;BME280;70395;51.382;7.074;2024-03-17T01:22:58;101131.72;;;5.23;60.97
80938;BME280;70395;51.382;7.074;2024-03-17T01:25:24;101124.78;;;5.20;60.94
80938;BME280;70395;51.382;7.074;2024-03-17T01:27:55;101127.59;;;5.17;61.01
80938;BME280;70395;51.382;7.074;2024-03-17T01:30:22;101124.19;;;5.15;60.98
80938;BME280;70395;51.382;7.074;2024-03-17T01:32:48;101126.19;;;5.11;61.05
80938;BME280;70395;51.382;7.074;2024-03-17T01:35:15;101127.13;;;5.10;61.07
80938;BME280;70395;51.382;7.074;2024-03-17T01:37:41;101136.88;;;5.10;61.08
80938;BME280;70395;51.382;7.074;2024-03-17T01:40:08;101121.03;;;5.08;60.99
80938;BME280;70395;51.382;7.074;2024-03-17T01:42:41;101125.59;;;5.06;61.01
80938;BME280;70395;51.382;7.074;2024-03-17T01:45:31;101123.00;;;5.04;61.01
80938;BME280;70395;51.382;7.074;2024-03-17T01:48:01;101112.38;;;5.04;61.02
80938;BME280;70395;51.382;7.074;2024-03-17T01:50:36;101110.75;;;5.02;61.12
80938;BME280;70395;51.382;7.074;2024-03-17T01:53:05;101114.25;;;5.02;61.06
80938;BME280;70395;51.382;7.074;2024-03-17T01:55:38;101109.97;;;5.00;61.21
80938;BME280;70395;51.382;7.074;2024-03-17T01:58:05;101109.09;;;4.99;61.01
80938;BME280;70395;51.382;7.074;2024-03-17T02:00:36;101107.41;;;4.98;61.21
80938;BME280;70395;51.382;7.074;2024-03-17T02:03:06;101112.91;;;4.95;61.18
80938;BME280;70395;51.382;7.074;2024-03-17T02:05:35;101112.03;;;4.94;61.03
80938;BME280;70395;51.382;7.074;2024-03-17T02:08:06;101104.28;;;4.91;61.16
80938;BME280;70395;51.382;7.074;2024-03-17T02:10:33;101105.09;;;4.92;61.13
80938;BME280;70395;51.382;7.074;2024-03-17T02:13:01;101108.63;;;4.92;60.95
80938;BME280;70395;51.382;7.074;2024-03-17T02:15:29;101106.72;;;4.94;60.88
80938;BME280;70395;51.382;7.074;2024-03-17T02:17:55;101090.88;;;4.93;61.07
80938;BME280;70395;51.382;7.074;2024-03-17T02:20:21;101090.13;;;4.91;60.94
80938;BME280;70395;51.382;7.074;2024-03-17T02:23:07;101093.69;;;4.90;60.97
80938;BME280;70395;51.382;7.074;2024-03-17T02:25:33;101091.91;;;4.90;60.77
80938;BME280;70395;51.382;7.074;2024-03-17T02:27:59;101090.38;;;4.86;61.06
80938;BME280;70395;51.382;7.074;2024-03-17T02:30:25;101087.91;;;4.83;60.95
80938;BME280;70395;51.382;7.074;2024-03-17T02:32:56;101086.28;;;4.80;61.28
80938;BME280;70395;51.382;7.074;2024-03-17T02:35:24;101088.06;;;4.80;61.18
80938;BME280;70395;51.382;7.074;2024-03-17T02:37:50;101088.25;;;4.77;61.13
80938;BME280;70395;51.382;7.074;2024-03-17T02:40:16;101086.53;;;4.76;60.90
80938;BME280;70395;51.382;7.074;2024-03-17T02:42:42;101081.38;;;4.72;61.17
80938;BME280;70395;51.382;7.074;2024-03-17T02:45:11;101078.84;;;4.71;61.26
80938;BME280;70395;51.382;7.074;2024-03-17T02:47:40;101080.78;;;4.67;61.40
80938;BME280;70395;51.382;7.074;2024-03-17T02:50:07;101085.19;;;4.68;61.43
80938;BME280;70395;51.382;7.074;2024-03-17T02:52:34;101081.75;;;4.66;61.46
80938;BME280;70395;51.382;7.074;2024-03-17T02:55:00;101083.66;;;4.64;61.56
80938;BME280;70395;51.382;7.074;2024-03-17T02:57:27;101076.72;;;4.61;61.54
80938;BME280;70395;51.382;7.074;2024-03-17T02:59:56;101068.81;;;4.60;61.60
80938;BME280;70395;51.382;7.074;2024-03-17T03:02:22;101068.81;;;4.60;61.76
80938;BME280;70395;51.382;7.074;2024-03-17T03:04:48;101064.44;;;4.59;61.79
80938;BME280;70395;51.382;7.074;2024-03-17T03:07:14;101063.59;;;4.58;61.76
80938;BME280;70395;51.382;7.074;2024-03-17T03:09:40;101065.47;;;4.56;61.67
80938;BME280;70395;51.382;7.074;2024-03-17T03:12:06;101066.25;;;4.58;62.04
80938;BME280;70395;51.382;7.074;2024-03-17T03:14:33;101072.50;;;4.57;61.79
80938;BME280;70395;51.382;7.074;2024-03-17T03:16:59;101068.03;;;4.58;61.96
80938;BME280;70395;51.382;7.074;2024-03-17T03:19:29;101071.47;;;4.60;61.96
80938;BME280;70395;51.382;7.074;2024-03-17T03:21:56;101072.31;;;4.60;62.03
80938;BME280;70395;51.382;7.074;2024-03-17T03:24:21;101069.34;;;4.67;62.28
80938;BME280;70395;51.382;7.074;2024-03-17T03:26:47;101068.03;;;4.74;62.04
80938;BME280;70395;51.382;7.074;2024-03-17T03:29:14;101061.59;;;4.78;62.04
80938;BME280;70395;51.382;7.074;2024-03-17T03:31:40;101075.63;;;4.80;61.91
80938;BME280;70395;51.382;7.074;2024-03-17T03:34:07;101068.53;;;4.81;62.07
80938;BME280;70395;51.382;7.074;2024-03-17T03:36:35;101076.56;;;4.79;61.92
80938;BME280;70395;51.382;7.074;2024-03-17T03:39:04;101065.19;;;4.77;61.93
80938;BME280;70395;51.382;7.074;2024-03-17T03:41:36;101066.03;;;4.78;61.95
80938;BME280;70395;51.382;7.074;2024-03-17T03:44:02;101076.66;;;4.78;62.12
80938;BME280;70395;51.382;7.074;2024-03-17T03:46:29;101062.53;;;4.77;61.95
80938;BME280;70395;51.382;7.074;2024-03-17T03:48:54;101062.53;;;4.77;62.00
80938;BME280;70395;51.382;7.074;2024-03-17T03:51:20;101064.34;;;4.77;61.89
80938;BME280;70395;51.382;7.074;2024-03-17T03:53:51;101067.06;;;4.75;61.84
80938;BME280;70395;51.382;7.074;2024-03-17T03:56:16;101058.25;;;4.75;61.63
80938;BME280;70395;51.382;7.074;2024-03-17T03:58:42;101068.88;;;4.75;61.95
80938;BME280;70395;51.382;7.074;2024-03-17T04:01:10;101069.84;;;4.73;61.96
80938;BME280;70395;51.382;7.074;2024-03-17T04:03:41;101061.94;;;4.72;61.85
80938;BME280;70395;51.382;7.074;2024-03-17T04:06:09;101065.44;;;4.72;62.04
80938;BME280;70395;51.382;7.074;2024-03-17T04:08:38;101062.88;;;4.71;61.98
80938;BME280;70395;51.382;7.074;2024-03-17T04:11:07;101060.22;;;4.71;62.17
80938;BME280;70395;51.382;7.074;2024-03-17T04:13:33;101063.75;;;4.71;61.99
80938;BME280;70395;51.382;7.074;2024-03-17T04:16:01;101069.91;;;4.72;62.04
80938;BME280;70395;51.382;7.074;2024-03-17T04:18:31;101057.56;;;4.71;62.11
80938;BME280;70395;51.382;7.074;2024-03-17T04:21:03;101069.06;;;4.71;62.34
80938;BME280;70395;51.382;7.074;2024-03-17T04:23:29;101050.53;;;4.70;62.06
80938;BME280;70395;51.382;7.074;2024-03-17T04:25:59;101053.97;;;4.72;62.39
80938;BME280;70395;51.382;7.074;2024-03-17T04:28:25;101055.59;;;4.75;62.55
80938;BME280;70395;51.382;7.074;2024-03-17T04:30:51;101049.16;;;4.79;62.49
80938;BME280;70395;51.382;7.074;2024-03-17T04:33:16;101049.66;;;4.86;62.62
80938;BME280;70395;51.382;7.074;2024-03-17T04:35:43;101054.59;;;4.92;62.74
80938;BME280;70395;51.382;7.074;2024-03-17T04:38:09;101047.22;;;4.97;62.38
80938;BME280;70395;51.382;7.074;2024-03-17T04:40:40;101045.13;;;5.02;62.56
80938;BME280;70395;51.382;7.074;2024-03-17T04:43:09;101037.00;;;5.05;62.37
80938;BME280;70395;51.382;7.074;2024-03-17T04:45:35;101038.63;;;5.08;62.42
80938;BME280;70395;51.382;7.074;2024-03-17T04:48:01;101025.31;;;5.08;62.35
80938;BME280;70395;51.382;7.074;2024-03-17T04:50:27;101032.44;;;5.07;62.55
80938;BME280;70395;51.382;7.074;2024-03-17T04:53:00;101027.00;;;5.09;62.49
80938;BME280;70395;51.382;7.074;2024-03-17T04:55:26;101025.22;;;5.10;62.34
80938;BME280;70395;51.382;7.074;2024-03-17T04:57:53;101026.06;;;5.10;62.44
80938;BME280;70395;51.382;7.074;2024-03-17T05:00:18;101028.63;;;5.12;62.43
80938;BME280;70395;51.382;7.074;2024-03-17T05:02:45;101021.41;;;5.14;62.48
80938;BME280;70395;51.382;7.074;2024-03-17T05:05:11;101014.31;;;5.14;62.63
80938;BME280;70395;51.382;7.074;2024-03-17T05:07:37;101013.25;;;5.17;62.63
80938;BME280;70395;51.382;7.074;2024-03-17T05:10:04;101013.19;;;5.18;62.52
80938;BME280;70395;51.382;7.074;2024-03-17T05:12:31;101012.31;;;5.18;62.59
80938;BME280;70395;51.382;7.074;2024-03-17T05:14:57;101024.59;;;5.21;62.68
80938;BME280;70395;51.382;7.074;2024-03-17T05:17:23;101015.84;;;5.18;62.54
80938;BME280;70395;51.382;7.074;2024-03-17T05:19:49;101020.31;;;5.18;62.59
80938;BME280;70395;51.382;7.074;2024-03-17T05:22:14;101027.31;;;5.19;62.53
80938;BME280;70395;51.382;7.074;2024-03-17T05:24:40;101021.06;;;5.20;62.60
80938;BME280;70395;51.382;7.074;2024-03-17T05:27:06;101018.50;;;5.18;62.53
80938;BME280;70395;51.382;7.074;2024-03-17T05:29:32;101021.25;;;5.17;62.32
80938;BME280;70395;51.382;7.074;2024-03-17T05:31:58;101016.97;;;5.14;62.30
80938;BME280;70395;51.382;7.074;2024-03-17T05:34:24;101014.41;;;5.13;62.33
80938;BME280;70395;51.382;7.074;2024-03-17T05:36:51;101018.97;;;5.11;62.50
80938;BME280;70395;51.382;7.074;2024-03-17T05:39:16;101012.88;;;5.09;62.51
80938;BME280;70395;51.382;7.074;2024-03-17T05:41:43;101013.94;;;5.06;62.47
80938;BME280;70395;51.382;7.074;2024-03-17T05:44:09;101007.63;;;5.07;62.70
80938;BME280;70395;51.382;7.074;2024-03-17T05:46:35;101010.13;;;5.10;62.71
80938;BME280;70395;51.382;7.074;2024-03-17T05:49:01;101011.63;;;5.14;62.68
80938;BME280;70395;51.382;7.074;2024-03-17T05:51:29;101008.81;;;5.17;62.68
80938;BME280;70395;51.382;7.074;2024-03-17T05:53:55;101012.03;;;5.23;62.74
80938;BME280;70395;51.382;7.074;2024-03-17T05:56:21;101011.47;;;5.32;62.73
80938;BME280;70395;51.382;7.074;2024-03-17T05:58:48;101015.06;;;5.46;62.78
80938;BME280;70395;51.382;7.074;2024-03-17T06:01:14;101019.56;;;5.60;62.88
80938;BME280;70395;51.382;7.074;2024-03-17T06:03:40;101018.59;;;5.75;62.53
80938;BME280;70395;51.382;7.074;2024-03-17T06:06:08;101023.16;;;5.88;62.75
80938;BME280;70395;51.382;7.074;2024-03-17T06:08:37;101016.28;;;5.99;62.62
80938;BME280;70395;51.382;7.074;2024-03-17T06:11:05;101018.09;;;6.13;62.38
80938;BME280;70395;51.382;7.074;2024-03-17T06:13:31;101017.28;;;6.25;62.38
80938;BME280;70395;51.382;7.074;2024-03-17T06:15:57;101014.59;;;6.40;62.44
80938;BME280;70395;51.382;7.074;2024-03-17T06:18:27;101003.00;;;6.54;62.42
80938;BME280;70395;51.382;7.074;2024-03-17T06:20:53;101002.09;;;6.68;62.17
80938;BME280;70395;51.382;7.074;2024-03-17T06:23:19;100994.97;;;6.82;62.16
80938;BME280;70395;51.382;7.074;2024-03-17T06:25:47;100989.47;;;6.98;61.91
80938;BME280;70395;51.382;7.074;2024-03-17T06:28:16;100993.41;;;7.18;61.71
80938;BME280;70395;51.382;7.074;2024-03-17T06:30:53;100989.69;;;7.34;61.44
80938;BME280;70395;51.382;7.074;2024-03-17T06:33:19;100993.81;;;7.51;61.23
80938;BME280;70395;51.382;7.074;2024-03-17T06:35:46;100995.50;;;7.65;61.11
80938;BME280;70395;51.382;7.074;2024-03-17T06:38:13;100998.44;;;7.87;60.88
80938;BME280;70395;51.382;7.074;2024-03-17T06:40:41;100996.31;;;8.17;60.85
80938;BME280;70395;51.382;7.074;2024-03-17T06:43:07;100992.88;;;8.52;60.48
80938;BME280;70395;51.382;7.074;2024-03-17T06:45:34;100996.28;;;8.90;60.26
80938;BME280;70395;51.382;7.074;2024-03-17T06:48:00;100998.66;;;9.30;59.86
80938;BME280;70395;51.382;7.074;2024-03-17T06:50:26;100997.34;;;9.70;59.52
80938;BME280;70395;51.382;7.074;2024-03-17T06:52:52;100994.47;;;10.06;58.78
80938;BME280;70395;51.382;7.074;2024-03-17T06:55:19;100996.25;;;10.29;58.15
80938;BME280;70395;51.382;7.074;2024-03-17T06:57:47;100989.63;;;10.44;57.89
80938;BME280;70395;51.382;7.074;2024-03-17T07:00:14;100969.09;;;10.55;57.58
80938;BME280;70395;51.382;7.074;2024-03-17T07:02:42;100969.97;;;10.77;56.52
80938;BME280;70395;51.382;7.074;2024-03-17T07:05:15;100964.47;;;11.00;55.56
80938;BME280;70395;51.382;7.074;2024-03-17T07:07:44;100964.88;;;11.26;55.23
80938;BME280;70395;51.382;7.074;2024-03-17T07:10:11;100961.63;;;11.54;54.43
80938;BME280;70395;51.382;7.074;2024-03-17T07:12:41;100957.44;;;11.81;53.88
80938;BME280;70395;51.382;7.074;2024-03-17T07:15:08;100962.03;;;12.11;53.25
80938;BME280;70395;51.382;7.074;2024-03-17T07:17:34;100964.75;;;12.31;51.54
80938;BME280;70395;51.382;7.074;2024-03-17T07:20:01;100962.50;;;12.56;51.11
80938;BME280;70395;51.382;7.074;2024-03-17T07:22:27;100957.50;;;12.81;50.61
80938;BME280;70395;51.382;7.074;2024-03-17T07:24:54;100958.13;;;13.13;50.96
80938;BME280;70395;51.382;7.074;2024-03-17T07:27:27;100969.75;;;13.51;49.83
80938;BME280;70395;51.382;7.074;2024-03-17T07:29:53;100978.94;;;13.87;49.53
80938;BME280;70395;51.382;7.074;2024-03-17T07:32:19;100983.22;;;14.08;48.75
80938;BME280;70395;51.382;7.074;2024-03-17T07:34:45;100985.53;;;14.21;48.66
80938;BME280;70395;51.382;7.074;2024-03-17T07:37:11;100982.16;;;14.37;48.43
80938;BME280;70395;51.382;7.074;2024-03-17T07:39:37;100991.41;;;14.53;47.86
80938;BME280;70395;51.382;7.074;2024-03-17T07:42:02;100991.16;;;14.64;47.36
80938;BME280;70395;51.382;7.074;2024-03-17T07:44:28;100998.25;;;14.66;47.10
80938;BME280;70395;51.382;7.074;2024-03-17T07:47:00;100991.66;;;14.60;47.46
80938;BME280;70395;51.382;7.074;2024-03-17T07:49:26;100988.88;;;14.51;45.99
80938;BME280;70395;51.382;7.074;2024-03-17T07:51:52;100990.72;;;14.51;46.76
80938;BME280;70395;51.382;7.074;2024-03-17T07:54:17;100982.47;;;14.52;46.73
80938;BME280;70395;51.382;7.074;2024-03-17T07:56:45;100982.44;;;14.71;46.27
80938;BME280;70395;51.382;7.074;2024-03-17T07:59:12;100980.13;;;15.21;46.10
80938;BME280;70395;51.382;7.074;2024-03-17T08:01:42;100974.81;;;15.98;46.03
80938;BME280;70395;51.382;7.074;2024-03-17T08:04:08;100985.41;;;16.85;44.62
80938;BME280;70395;51.382;7.074;2024-03-17T08:06:33;100982.22;;;17.55;43.22
80938;BME280;70395;51.382;7.074;2024-03-17T08:08:59;100988.38;;;18.12;42.58
80938;BME280;70395;51.382;7.074;2024-03-17T08:11:25;100988.69;;;18.41;42.57
80938;BME280;70395;51.382;7.074;2024-03-17T08:13:51;100987.91;;;18.56;41.14
80938;BME280;70395;51.382;7.074;2024-03-17T08:16:18;100985.28;;;18.48;39.72
80938;BME280;70395;51.382;7.074;2024-03-17T08:18:44;100989.88;;;18.15;40.16
80938;BME280;70395;51.382;7.074;2024-03-17T08:21:09;100992.09;;;18.11;40.93
80938;BME280;70395;51.382;7.074;2024-03-17T08:23:36;100979.00;;;18.47;39.93
80938;BME280;70395;51.382;7.074;2024-03-17T08:26:07;100993.25;;;19.03;39.81
80938;BME280;70395;51.382;7.074;2024-03-17T08:28:34;100990.13;;;19.60;38.64
80938;BME280;70395;51.382;7.074;2024-03-17T08:31:02;100994.41;;;20.22;37.72
80938;BME280;70395;51.382;7.074;2024-03-17T08:33:29;101008.22;;;20.93;36.96
80938;BME280;70395;51.382;7.074;2024-03-17T08:36:03;101005.50;;;21.57;36.13
80938;BME280;70395;51.382;7.074;2024-03-17T08:38:31;101005.53;;;21.64;34.76
80938;BME280;70395;51.382;7.074;2024-03-17T08:41:05;100993.34;;;21.60;34.63
80938;BME280;70395;51.382;7.074;2024-03-17T08:43:32;100998.88;;;21.80;34.18
80938;BME280;70395;51.382;7.074;2024-03-17T08:48:27;101003.88;;;22.39;33.20
80938;BME280;70395;51.382;7.074;2024-03-17T08:50:55;100998.63;;;22.24;32.70
80938;BME280;70395;51.382;7.074;2024-03-17T08:53:22;101001.69;;;21.94;33.04
80938;BME280;70395;51.382;7.074;2024-03-17T08:55:49;101000.22;;;21.91;32.94
80938;BME280;70395;51.382;7.074;2024-03-17T08:58:15;100986.06;;;21.81;32.64
80938;BME280;70395;51.382;7.074;2024-03-17T09:00:41;100975.06;;;21.60;32.98
80938;BME280;70395;51.382;7.074;2024-03-17T09:03:09;100977.72;;;21.40;33.05
80938;BME280;70395;51.382;7.074;2024-03-17T09:05:40;100977.22;;;21.23;32.65
80938;BME280;70395;51.382;7.074;2024-03-17T09:08:07;100977.28;;;21.01;33.01
80938;BME280;70395;51.382;7.074;2024-03-17T09:10:40;100978.38;;;20.85;33.81
80938;BME280;70395;51.382;7.074;2024-03-17T09:13:06;100975.03;;;20.82;33.79
80938;BME280;70395;51.382;7.074;2024-03-17T09:15:32;100963.09;;;20.84;33.80
80938;BME280;70395;51.382;7.074;2024-03-17T09:17:58;100965.97;;;20.75;33.61
80938;BME280;70395;51.382;7.074;2024-03-17T09:20:24;100970.03;;;20.35;33.56
80938;BME280;70395;51.382;7.074;2024-03-17T09:22:50;100967.72;;;19.95;34.34
80938;BME280;70395;51.382;7.074;2024-03-17T09:25:16;100965.63;;;19.60;34.26
80938;BME280;70395;51.382;7.074;2024-03-17T09:27:42;100963.22;;;19.20;34.90
80938;BME280;70395;51.382;7.074;2024-03-17T09:30:09;100966.06;;;18.73;34.62
80938;BME280;70395;51.382;7.074;2024-03-17T09:32:38;100962.34;;;18.27;35.91
80938;BME280;70395;51.382;7.074;2024-03-17T09:35:05;100955.25;;;17.94;36.27
80938;BME280;70395;51.382;7.074;2024-03-17T09:37:31;100956.97;;;17.54;36.30
80938;BME280;70395;51.382;7.074;2024-03-17T09:40:00;100959.66;;;17.22;36.98
80938;BME280;70395;51.382;7.074;2024-03-17T09:42:27;100964.91;;;16.99;36.87
80938;BME280;70395;51.382;7.074;2024-03-17T09:44:53;100963.44;;;16.71;37.78
80938;BME280;70395;51.382;7.074;2024-03-17T09:47:24;100960.22;;;16.51;37.59
80938;BME280;70395;51.382;7.074;2024-03-17T09:49:52;100952.94;;;16.43;38.23
80938;BME280;70395;51.382;7.074;2024-03-17T09:52:24;100959.34;;;16.42;38.28
80938;BME280;70395;51.382;7.074;2024-03-17T09:55:15;100952.44;;;16.48;38.50
80938;BME280;70395;51.382;7.074;2024-03-17T09:57:43;100947.53;;;16.60;38.11
80938;BME280;70395;51.382;7.074;2024-03-17T10:00:13;100949.38;;;16.68;38.04
80938;BME280;70395;51.382;7.074;2024-03-17T10:02:47;100947.16;;;16.80;38.20
80938;BME280;70395;51.382;7.074;2024-03-17T10:05:25;100956.81;;;16.82;38.09
80938;BME280;70395;51.382;7.074;2024-03-17T10:07:51;100968.84;;;16.80;38.69
80938;BME280;70395;51.382;7.074;2024-03-17T10:10:20;100974.41;;;16.70;38.28
80938;BME280;70395;51.382;7.074;2024-03-17T10:12:51;100970.69;;;16.62;38.75
80938;BME280;70395;51.382;7.074;2024-03-17T10:15:18;100974.78;;;16.58;38.65
80938;BME280;70395;51.382;7.074;2024-03-17T10:17:44;100980.53;;;16.55;38.27
80938;BME280;70395;51.382;7.074;2024-03-17T10:20:21;100977.81;;;16.55;38.70
80938;BME280;70395;51.382;7.074;2024-03-17T10:23:06;100969.00;;;16.53;38.79
80938;BME280;70395;51.382;7.074;2024-03-17T10:25:38;100968.00;;;16.54;38.96
80938;BME280;70395;51.382;7.074;2024-03-17T10:28:11;100963.41;;;16.54;38.37
80938;BME280;70395;51.382;7.074;2024-03-17T10:30:39;100975.94;;;16.55;38.66
80938;BME280;70395;51.382;7.074;2024-03-17T10:33:07;100981.69;;;16.69;38.82
80938;BME280;70395;51.382;7.074;2024-03-17T10:35:38;100980.84;;;16.85;38.48
80938;BME280;70395;51.382;7.074;2024-03-17T10:38:06;100976.78;;;16.98;38.56
80938;BME280;70395;51.382;7.074;2024-03-17T10:40:33;100974.38;;;17.11;38.40
80938;BME280;70395;51.382;7.074;2024-03-17T10:43:02;100972.69;;;17.19;37.66
80938;BME280;70395;51.382;7.074;2024-03-17T10:45:28;100979.44;;;17.23;37.67
80938;BME280;70395;51.382;7.074;2024-03-17T10:48:02;100973.19;;;17.22;38.15
80938;BME280;70395;51.382;7.074;2024-03-17T10:50:31;100976.72;;;17.23;37.86
80938;BME280;70395;51.382;7.074;2024-03-17T10:53:03;100973.34;;;17.29;37.84
80938;BME280;70395;51.382;7.074;2024-03-17T10:55:45;100963.81;;;17.42;38.51
80938;BME280;70395;51.382;7.074;2024-03-17T10:58:44;100971.88;;;17.59;38.29
80938;BME280;70395;51.382;7.074;2024-03-17T11:01:15;100966.03;;;17.70;37.63
80938;BME280;70395;51.382;7.074;2024-03-17T11:03:42;100970.94;;;17.75;37.48
80938;BME280;70395;51.382;7.074;2024-03-17T11:06:09;100966.00;;;17.78;36.70
80938;BME280;70395;51.382;7.074;2024-03-17T11:08:37;100973.44;;;17.85;37.50
80938;BME280;70395;51.382;7.074;2024-03-17T11:11:04;100971.97;;;18.06;36.85
80938;BME280;70395;51.382;7.074;2024-03-17T11:13:31;100971.63;;;18.32;36.67
80938;BME280;70395;51.382;7.074;2024-03-17T11:15:59;100970.53;;;18.42;36.35
80938;BME280;70395;51.382;7.074;2024-03-17T11:21:19;100967.75;;;18.03;36.99
80938;BME280;70395;51.382;7.074;2024-03-17T11:24:02;100961.91;;;17.83;37.15
80938;BME280;70395;51.382;7.074;2024-03-17T11:26:33;100955.59;;;17.59;37.31
80938;BME280;70395;51.382;7.074;2024-03-17T11:29:00;100952.78;;;17.43;37.76
80938;BME280;70395;51.382;7.074;2024-03-17T11:31:35;100966.06;;;17.30;38.09
80938;BME280;70395;51.382;7.074;2024-03-17T11:34:03;100959.13;;;17.27;38.41
80938;BME280;70395;51.382;7.074;2024-03-17T11:36:36;100958.09;;;17.28;38.24
80938;BME280;70395;51.382;7.074;2024-03-17T11:39:09;100962.16;;;17.24;38.03
80938;BME280;70395;51.382;7.074;2024-03-17T11:42:04;100956.25;;;17.12;37.78
80938;BME280;70395;51.382;7.074;2024-03-17T11:44:36;100956.44;;;17.02;38.47
80938;BME280;70395;51.382;7.074;2024-03-17T11:47:06;100958.63;;;16.98;38.24
80938;BME280;70395;51.382;7.074;2024-03-17T11:49:38;100960.66;;;17.05;38.36
80938;BME280;70395;51.382;7.074;2024-03-17T11:52:16;100957.78;;;17.06;37.98
80938;BME280;70395;51.382;7.074;2024-03-17T11:54:46;100946.94;;;17.06;38.43
80938;BME280;70395;51.382;7.074;2024-03-17T11:57:22;100943.38;;;17.14;38.37
80938;BME280;70395;51.382;7.074;2024-03-17T11:59:50;100946.41;;;17.28;38.22
80938;BME280;70395;51.382;7.074;2024-03-17T12:02:27;100935.22;;;17.31;38.02
80938;BME280;70395;51.382;7.074;2024-03-17T12:04:57;100930.63;;;17.40;38.18
80938;BME280;70395;51.382;7.074;2024-03-17T12:07:24;100932.78;;;17.44;38.04
80938;BME280;70395;51.382;7.074;2024-03-17T12:09:51;100933.28;;;17.48;38.02
80938;BME280;70395;51.382;7.074;2024-03-17T12:12:23;100921.22;;;17.51;37.57
80938;BME280;70395;51.382;7.074;2024-03-17T12:14:50;100937.81;;;17.56;37.36
80938;BME280;70395;51.382;7.074;2024-03-17T12:17:25;100929.16;;;17.61;37.71
80938;BME280;70395;51.382;7.074;2024-03-17T12:19:52;100929.25;;;17.76;37.39
80938;BME280;70395;51.382;7.074;2024-03-17T12:22:20;100925.75;;;17.90;37.17
80938;BME280;70395;51.382;7.074;2024-03-17T12:24:55;100919.75;;;18.04;36.48
80938;BME280;70395;51.382;7.074;2024-03-17T12:27:23;100908.59;;;18.22;36.99
80938;BME280;70395;51.382;7.074;2024-03-17T12:29:51;100913.53;;;18.42;36.28
80938;BME280;70395;51.382;7.074;2024-03-17T12:32:23;100912.91;;;18.55;35.80
80938;BME280;70395;51.382;7.074;2024-03-17T12:34:54;100906.19;;;18.66;35.33
80938;BME280;70395;51.382;7.074;2024-03-17T12:37:22;100901.69;;;18.73;35.19
80938;BME280;70395;51.382;7.074;2024-03-17T12:39:49;100899.47;;;18.77;35.82
80938;BME280;70395;51.382;7.074;2024-03-17T12:42:16;100891.78;;;18.96;35.67
80938;BME280;70395;51.382;7.074;2024-03-17T12:44:54;100889.44;;;19.08;35.29
80938;BME280;70395;51.382;7.074;2024-03-17T12:47:22;100887.78;;;19.22;34.97
80938;BME280;70395;51.382;7.074;2024-03-17T12:49:56;100880.28;;;19.24;34.76
80938;BME280;70395;51.382;7.074;2024-03-17T12:52:32;100873.47;;;19.50;34.62
80938;BME280;70395;51.382;7.074;2024-03-17T13:01:01;100867.63;;;20.70;33.54
80938;BME280;70395;51.382;7.074;2024-03-17T13:03:32;100866.81;;;20.69;33.78
80938;BME280;70395;51.382;7.074;2024-03-17T13:06:03;100863.25;;;20.76;33.22
80938;BME280;70395;51.382;7.074;2024-03-17T13:08:34;100856.56;;;20.78;33.16
80938;BME280;70395;51.382;7.074;2024-03-17T13:11:01;100855.22;;;20.96;32.62
80938;BME280;70395;51.382;7.074;2024-03-17T13:13:29;100842.25;;;21.05;32.84